createdAt,value
2019-03-08T00:02:17.219Z,18.85
2019-03-08T00:05:12.375Z,18.40
2019-03-08T00:08:07.501Z,24.37
2019-03-08T00:11:02.336Z,20.25
2019-03-08T00:13:57.664Z,20.68
2019-03-08T00:16:52.859Z,20.08
2019-03-08T00:19:47.803Z,22.25
2019-03-08T00:22:42.654Z,20.85
2019-03-08T00:25:37.820Z,20.77
2019-03-08T00:28:32.858Z,18.67
2019-03-08T00:31:27.802Z,18.62
2019-03-08T00:34:23.546Z,17.57
2019-03-08T00:37:18.757Z,17.82
2019-03-08T00:40:14.173Z,18.07
2019-03-08T00:43:09.404Z,18.20
2019-03-08T00:46:04.311Z,18.73
2019-03-08T00:48:59.640Z,18.32
2019-03-08T00:51:54.787Z,18.57
2019-03-08T00:54:49.864Z,20.95
2019-03-08T00:57:44.924Z,20.15
2019-03-08T01:00:40.400Z,19.82
2019-03-08T01:03:35.601Z,19.10
2019-03-08T01:06:30.681Z,19.92
2019-03-08T01:09:26.120Z,19.73
2019-03-08T01:12:21.302Z,18.98
2019-03-08T01:15:18.249Z,19.55
2019-03-08T01:18:13.049Z,19.75
2019-03-08T01:21:08.355Z,20.27
2019-03-08T01:24:03.680Z,20.77
2019-03-08T01:26:58.970Z,22.13
2019-03-08T01:29:53.868Z,22.48
2019-03-08T01:32:48.694Z,22.75
2019-03-08T01:35:43.188Z,23.47
2019-03-08T01:38:37.927Z,23.18
2019-03-08T01:41:32.945Z,23.05
2019-03-08T01:44:28.111Z,24.05
2019-03-08T01:47:23.175Z,24.10
2019-03-08T01:50:18.575Z,24.10
2019-03-08T01:53:13.668Z,24.02
2019-03-08T01:56:08.687Z,23.65
2019-03-08T01:59:03.357Z,22.65
2019-03-08T02:01:58.463Z,22.32
2019-03-08T02:04:53.713Z,23.12
2019-03-08T02:07:48.946Z,23.87
2019-03-08T02:10:44.357Z,24.75
2019-03-08T02:13:39.280Z,23.87
2019-03-08T02:16:34.139Z,22.25
2019-03-08T02:19:29.138Z,21.33
2019-03-08T02:22:24.057Z,20.85
2019-03-08T02:25:19.133Z,21.12
2019-03-08T02:28:13.927Z,19.12
2019-03-08T02:31:09.007Z,19.87
2019-03-08T02:34:04.079Z,20.65
2019-03-08T02:36:59.015Z,21.07
2019-03-08T02:39:53.731Z,21.37
2019-03-08T02:42:49.675Z,21.02
2019-03-08T02:45:45.039Z,21.75
2019-03-08T02:48:39.993Z,22.17
2019-03-08T02:51:35.358Z,20.25
2019-03-08T02:54:29.975Z,20.10
2019-03-08T02:57:25.187Z,19.48
2019-03-08T03:00:20.979Z,20.32
2019-03-08T03:03:16.540Z,21.73
2019-03-08T03:06:11.439Z,19.95
2019-03-08T03:09:06.720Z,19.52
2019-03-08T03:12:02.878Z,17.37
2019-03-08T03:14:58.057Z,18.32
2019-03-08T03:17:52.963Z,21.05
2019-03-08T03:20:48.152Z,16.23
2019-03-08T03:23:42.899Z,14.98
2019-03-08T03:26:38.338Z,14.23
2019-03-08T03:29:33.546Z,13.78
2019-03-08T03:32:28.314Z,12.90
2019-03-08T03:35:23.026Z,13.65
2019-03-08T03:38:17.817Z,13.15
2019-03-08T03:41:12.547Z,12.78
2019-03-08T03:44:07.681Z,13.48
2019-03-08T03:47:03.529Z,13.55
2019-03-08T03:49:58.819Z,13.28
2019-03-08T03:52:53.885Z,13.60
2019-03-08T03:55:49.061Z,14.03
2019-03-08T03:58:44.004Z,12.82
2019-03-08T04:01:45.980Z,12.75
2019-03-08T04:04:41.162Z,13.22
2019-03-08T04:07:35.906Z,14.93
2019-03-08T04:10:31.503Z,13.53
2019-03-08T04:13:27.752Z,13.75
2019-03-08T04:16:23.611Z,16.45
2019-03-08T04:19:18.876Z,14.33
2019-03-08T04:22:13.919Z,14.13
2019-03-08T04:25:10.399Z,13.68
2019-03-08T04:28:11.492Z,16.02
2019-03-08T04:31:06.551Z,12.70
2019-03-08T04:34:03.972Z,15.70
2019-03-08T04:36:57.663Z,14.80
2019-03-08T04:39:54.550Z,14.10
2019-03-08T04:42:50.877Z,11.90
2019-03-08T04:45:46.041Z,13.72
2019-03-08T04:48:43.071Z,12.37
2019-03-08T04:51:38.505Z,13.72
2019-03-08T04:54:33.795Z,10.82
2019-03-08T04:57:29.242Z,11.78
2019-03-08T05:00:25.359Z,12.75
2019-03-08T05:03:22.190Z,10.75
2019-03-08T05:06:18.110Z,10.75
2019-03-08T05:09:14.175Z,12.37
2019-03-08T05:24:24.065Z,14.90
2019-03-08T05:41:53.284Z,12.35
2019-03-08T05:44:49.204Z,13.65
2019-03-08T05:47:46.061Z,14.65
2019-03-08T05:50:55.550Z,12.95
2019-03-08T05:53:53.247Z,13.08
2019-03-08T05:56:52.618Z,14.53
2019-03-08T05:59:48.037Z,13.38
2019-03-08T06:02:47.148Z,16.37
2019-03-08T06:05:44.063Z,12.33
2019-03-08T06:08:40.596Z,13.58
2019-03-08T06:11:37.119Z,12.55
2019-03-08T06:14:34.000Z,12.98
2019-03-08T06:17:39.386Z,12.58
2019-03-08T06:20:35.680Z,12.75
2019-03-08T06:23:47.070Z,13.22
2019-03-08T06:27:03.439Z,13.98
2019-03-08T06:30:52.252Z,13.60
2019-03-08T06:37:36.035Z,14.15
2019-03-08T06:40:35.011Z,15.18
2019-03-08T06:43:30.966Z,13.35
2019-03-08T06:46:26.608Z,15.48
2019-03-08T06:49:23.339Z,13.48
2019-03-08T06:52:19.487Z,13.18
2019-03-08T06:55:18.828Z,13.72
2019-03-08T06:58:15.975Z,16.02
2019-03-08T07:01:14.047Z,13.98
2019-03-08T07:04:09.811Z,14.30
2019-03-08T07:07:33.612Z,13.53
2019-03-08T07:10:30.609Z,14.60
2019-03-08T07:13:28.091Z,15.18
2019-03-08T07:16:23.679Z,16.30
2019-03-08T07:19:20.578Z,21.70
2019-03-08T07:22:34.244Z,30.10
2019-03-08T07:26:02.672Z,37.40
2019-03-08T07:29:20.120Z,17.30
2019-03-08T07:32:33.687Z,17.15
2019-03-08T07:36:00.340Z,15.88
2019-03-08T07:39:16.214Z,14.85
2019-03-08T07:42:33.826Z,15.13
2019-03-08T07:45:47.327Z,14.38
2019-03-08T07:49:03.641Z,14.75
2019-03-08T07:52:14.280Z,17.40
2019-03-08T07:55:36.816Z,14.20
2019-03-08T07:58:51.817Z,15.50
2019-03-08T08:02:01.152Z,15.13
2019-03-08T08:05:25.265Z,14.60
2019-03-08T08:08:34.177Z,13.93
2019-03-08T08:11:52.528Z,13.93
2019-03-08T08:15:33.916Z,16.35
2019-03-08T08:19:42.078Z,17.30
2019-03-08T08:26:36.671Z,14.93
2019-03-08T08:29:49.825Z,16.02
2019-03-08T08:33:04.050Z,15.95
2019-03-08T08:36:19.182Z,16.85
2019-03-08T08:39:41.178Z,16.07
2019-03-08T08:42:44.361Z,15.20
2019-03-08T08:45:54.075Z,15.50
2019-03-08T08:48:58.624Z,16.27
2019-03-08T08:52:14.883Z,17.20
2019-03-08T08:55:32.601Z,15.23
2019-03-08T08:59:04.174Z,23.20
2019-03-08T09:02:17.001Z,15.80
2019-03-08T09:05:24.171Z,15.58
2019-03-08T09:08:52.352Z,19.98
2019-03-08T09:12:03.766Z,19.15
2019-03-08T09:15:15.424Z,15.83
2019-03-08T09:18:22.243Z,20.92
2019-03-08T09:21:32.777Z,20.17
2019-03-08T09:24:40.920Z,18.48
2019-03-08T09:27:50.030Z,18.73
2019-03-08T09:31:18.676Z,19.35
2019-03-08T09:34:24.589Z,19.80
2019-03-08T09:37:47.359Z,19.30
2019-03-08T09:41:10.623Z,18.80
2019-03-08T09:44:42.922Z,21.52
2019-03-08T09:51:36.595Z,20.05
2019-03-08T09:55:01.861Z,20.35
2019-03-08T09:58:27.107Z,19.23
2019-03-08T10:01:42.590Z,18.77
2019-03-08T10:05:12.403Z,19.73
2019-03-08T10:08:25.473Z,20.02
2019-03-08T10:11:55.182Z,15.53
2019-03-08T10:15:15.856Z,14.80
2019-03-08T10:18:31.112Z,15.38
2019-03-08T10:21:50.323Z,16.62
2019-03-08T10:25:29.400Z,15.65
2019-03-08T10:28:45.623Z,14.58
2019-03-08T10:31:59.793Z,15.63
2019-03-08T10:35:11.070Z,14.75
2019-03-08T10:38:25.865Z,14.28
2019-03-08T10:41:50.586Z,14.18
2019-03-08T10:44:57.248Z,15.00
2019-03-08T10:48:26.041Z,13.98
2019-03-08T10:51:33.635Z,14.28
2019-03-08T11:17:28.590Z,14.30
2019-03-08T11:20:46.501Z,13.20
2019-03-08T11:23:52.632Z,12.47
2019-03-08T11:27:06.708Z,13.40
2019-03-08T11:30:21.752Z,13.53
2019-03-08T11:33:44.516Z,13.35
2019-03-08T11:37:09.487Z,13.55
2019-03-08T11:40:09.431Z,13.05
2019-03-08T11:43:22.874Z,14.23
2019-03-08T11:46:36.247Z,14.55
2019-03-08T11:49:53.647Z,13.93
2019-03-08T11:52:57.174Z,13.13
2019-03-08T11:56:01.621Z,13.05
2019-03-08T11:59:18.719Z,13.20
2019-03-08T12:02:51.324Z,13.30
2019-03-08T12:05:57.053Z,18.92
2019-03-08T12:09:09.636Z,12.70
2019-03-08T12:12:21.600Z,13.03
2019-03-08T12:15:36.619Z,13.85
2019-03-08T12:18:49.795Z,19.05
2019-03-08T12:22:13.339Z,14.80
2019-03-08T12:25:23.907Z,18.48
2019-03-08T12:28:49.089Z,14.05
2019-03-08T12:32:08.486Z,13.75
2019-03-08T12:35:48.873Z,14.47
2019-03-08T12:39:01.026Z,15.20
2019-03-08T12:42:38.722Z,17.27
2019-03-08T12:46:02.121Z,16.48
2019-03-08T12:49:32.938Z,15.30
2019-03-08T12:52:39.267Z,16.02
2019-03-08T12:56:49.285Z,16.60
2019-03-08T13:00:45.388Z,17.00
2019-03-08T13:04:07.850Z,18.00
2019-03-08T13:07:20.112Z,17.87
2019-03-08T13:10:16.845Z,17.10
2019-03-08T13:13:13.974Z,17.55
2019-03-08T13:16:09.526Z,18.73
2019-03-08T13:19:13.294Z,20.15
2019-03-08T13:22:09.486Z,21.75
2019-03-08T13:25:05.187Z,23.60
2019-03-08T13:28:01.610Z,21.75
2019-03-08T13:30:58.106Z,21.50
2019-03-08T13:33:53.490Z,21.68
2019-03-08T13:36:48.526Z,23.32
2019-03-08T13:39:43.721Z,24.05
2019-03-08T13:42:39.432Z,23.98
2019-03-08T13:45:35.502Z,23.35
2019-03-08T13:48:30.310Z,28.57
2019-03-08T13:51:25.279Z,31.87
2019-03-08T13:54:20.624Z,37.20
2019-03-08T13:57:16.485Z,36.28
2019-03-08T14:00:13.474Z,33.30
2019-03-08T14:03:26.803Z,33.40
2019-03-08T14:06:22.282Z,38.98
2019-03-08T14:09:17.984Z,40.65
2019-03-08T14:12:13.960Z,40.08
2019-03-08T14:15:09.713Z,45.33
2019-03-08T14:18:05.878Z,41.25
2019-03-08T14:21:01.947Z,43.48
2019-03-08T14:23:57.239Z,41.83
2019-03-08T14:26:52.339Z,37.40
2019-03-08T14:29:48.021Z,39.10
2019-03-08T14:32:43.045Z,39.48
2019-03-08T14:35:38.480Z,39.78
2019-03-08T14:38:39.608Z,39.65
2019-03-08T14:42:05.337Z,40.98
2019-03-08T14:45:09.327Z,45.48
2019-03-08T14:48:05.887Z,43.13
2019-03-08T14:51:01.653Z,42.88
2019-03-08T14:53:57.066Z,44.38
2019-03-08T14:56:52.980Z,45.50
2019-03-08T14:59:53.138Z,44.48
2019-03-08T15:02:47.132Z,44.13
2019-03-08T15:05:41.659Z,41.60
2019-03-08T15:08:38.058Z,39.35
2019-03-08T15:11:34.688Z,38.90
2019-03-08T15:14:33.509Z,39.65
2019-03-08T15:17:26.720Z,40.33
2019-03-08T15:20:22.758Z,43.10
2019-03-08T15:23:18.224Z,40.75
2019-03-08T15:26:15.296Z,40.80
2019-03-08T15:29:10.682Z,43.38
2019-03-08T15:32:05.627Z,40.52
2019-03-08T15:35:00.541Z,81.42
2019-03-08T15:37:55.685Z,66.95
2019-03-08T15:40:50.649Z,48.05
2019-03-08T15:43:47.011Z,35.95
2019-03-08T15:46:41.435Z,40.00
2019-03-08T15:49:36.811Z,31.45
2019-03-08T15:52:31.725Z,29.70
2019-03-08T15:55:28.548Z,40.03
2019-03-08T15:58:23.861Z,30.95
2019-03-08T16:01:19.164Z,30.25
2019-03-08T16:04:14.325Z,27.87
2019-03-08T16:07:09.864Z,29.12
2019-03-08T16:10:05.093Z,27.25
2019-03-08T16:13:00.000Z,26.45
2019-03-08T16:15:54.873Z,26.57
2019-03-08T16:18:50.470Z,26.82
2019-03-08T16:21:50.567Z,27.77
2019-03-08T16:24:42.579Z,28.50
2019-03-08T16:27:38.002Z,31.40
2019-03-08T16:30:37.346Z,31.93
2019-03-08T16:33:44.659Z,28.87
2019-03-08T16:36:57.255Z,27.27
2019-03-08T16:40:08.844Z,25.88
2019-03-08T16:43:24.867Z,27.13
2019-03-08T16:46:35.889Z,26.87
2019-03-08T16:49:53.191Z,36.50
2019-03-08T16:53:09.712Z,29.92
2019-03-08T16:56:20.993Z,29.02
2019-03-08T16:59:26.126Z,29.15
2019-03-08T17:02:35.773Z,30.27
2019-03-08T17:05:49.382Z,31.73
2019-03-08T17:09:02.615Z,30.82
2019-03-08T17:12:24.291Z,30.32
2019-03-08T17:15:57.021Z,30.23
2019-03-08T17:19:13.074Z,28.15
2019-03-08T17:22:33.279Z,26.85
2019-03-08T17:26:03.323Z,26.73
2019-03-08T17:29:29.936Z,26.95
2019-03-08T17:32:49.834Z,25.35
2019-03-08T17:36:01.580Z,25.68
2019-03-08T17:39:30.037Z,27.10
2019-03-08T17:42:39.415Z,26.12
2019-03-08T17:45:44.133Z,25.55
2019-03-08T17:48:56.954Z,26.10
2019-03-08T17:52:12.363Z,26.93
2019-03-08T17:55:23.832Z,26.40
2019-03-08T17:58:36.470Z,27.75
2019-03-08T18:01:48.220Z,27.10
2019-03-08T18:04:53.101Z,27.07
2019-03-08T18:08:06.037Z,25.75
2019-03-08T18:11:12.554Z,25.75
2019-03-08T18:14:25.524Z,25.25
2019-03-08T18:17:31.668Z,25.30
2019-03-08T18:20:47.578Z,26.10
2019-03-08T18:24:12.649Z,24.70
2019-03-08T18:27:20.727Z,23.92
2019-03-08T18:30:32.669Z,24.80
2019-03-08T18:33:57.378Z,22.75
2019-03-08T18:37:08.344Z,24.00
2019-03-08T18:40:19.977Z,23.57
2019-03-08T18:43:27.521Z,23.98
2019-03-08T18:46:41.181Z,27.90
2019-03-08T18:49:47.666Z,24.70
2019-03-08T18:53:11.352Z,22.95
2019-03-08T18:56:32.702Z,22.95
2019-03-08T18:59:42.451Z,22.62
2019-03-08T19:02:55.219Z,21.90
2019-03-08T19:06:06.503Z,21.85
2019-03-08T19:09:17.052Z,21.50
2019-03-08T19:12:29.596Z,23.55
2019-03-08T19:15:45.547Z,21.77
2019-03-08T19:18:48.083Z,23.05
2019-03-08T19:22:09.889Z,21.50
2019-03-08T19:25:15.134Z,21.25
2019-03-08T19:28:28.031Z,21.37
2019-03-08T19:31:44.360Z,21.60
2019-03-08T19:35:06.982Z,21.17
2019-03-08T19:38:19.703Z,21.17
2019-03-08T19:41:38.002Z,21.90
2019-03-08T19:44:44.015Z,20.60
2019-03-08T19:47:55.384Z,21.62
2019-03-08T19:51:07.137Z,20.92
2019-03-08T19:54:16.640Z,21.07
2019-03-08T19:57:35.281Z,22.35
2019-03-08T20:00:50.988Z,22.05
2019-03-08T20:04:02.399Z,22.20
2019-03-08T20:07:13.553Z,22.73
2019-03-08T20:10:21.761Z,22.30
2019-03-08T20:13:46.885Z,23.85
2019-03-08T20:16:57.992Z,22.65
2019-03-08T20:20:13.808Z,21.82
2019-03-08T20:23:18.884Z,20.88
2019-03-08T20:26:35.724Z,21.70
2019-03-08T20:29:54.255Z,21.60
2019-03-08T20:33:20.323Z,20.12
2019-03-08T20:36:32.922Z,20.37
2019-03-08T20:39:54.805Z,19.37
2019-03-08T20:43:08.227Z,20.92
2019-03-08T20:46:10.257Z,20.15
2019-03-08T20:49:05.109Z,19.92
2019-03-08T20:52:00.175Z,20.00
2019-03-08T20:54:55.679Z,21.15
2019-03-08T20:57:50.821Z,20.68
2019-03-08T21:00:46.575Z,20.20
2019-03-08T21:03:42.140Z,19.98
2019-03-08T21:06:37.110Z,22.48
2019-03-08T21:09:32.451Z,22.80
2019-03-08T21:12:27.581Z,23.10
2019-03-08T21:15:25.713Z,21.85
2019-03-08T21:18:18.772Z,21.70
2019-03-08T21:21:13.938Z,21.68
2019-03-08T21:24:09.863Z,21.00
2019-03-08T21:27:05.240Z,22.17
2019-03-08T21:30:00.924Z,23.15
2019-03-08T21:32:56.971Z,22.22
2019-03-08T21:35:52.200Z,23.02
2019-03-08T21:38:47.354Z,22.93
2019-03-08T21:41:42.182Z,23.38
2019-03-08T21:44:37.315Z,23.47
2019-03-08T21:47:32.867Z,23.57
2019-03-08T21:50:28.238Z,24.72
2019-03-08T21:53:23.269Z,23.77
2019-03-08T21:56:18.722Z,24.05
2019-03-08T21:59:14.144Z,24.57
2019-03-08T22:02:09.667Z,24.95
2019-03-08T22:05:04.702Z,24.92
2019-03-08T22:08:00.777Z,26.77
2019-03-08T22:11:11.559Z,27.17
2019-03-08T22:14:08.376Z,26.68
2019-03-08T22:17:02.992Z,27.35
2019-03-08T22:19:58.739Z,26.57
2019-03-08T22:22:54.167Z,27.00
2019-03-08T22:25:51.087Z,27.22
2019-03-08T22:28:45.875Z,27.05
2019-03-08T22:31:41.308Z,27.40
2019-03-08T22:34:36.475Z,27.85
2019-03-08T22:37:31.490Z,27.07
2019-03-08T22:40:26.145Z,27.10
2019-03-08T22:43:25.610Z,26.52
2019-03-08T22:46:21.340Z,27.07
2019-03-08T22:49:16.650Z,28.27
2019-03-08T22:52:11.628Z,28.55
2019-03-08T22:55:06.429Z,28.57
2019-03-08T22:58:01.612Z,32.05
2019-03-08T23:01:17.562Z,28.87
2019-03-08T23:04:13.235Z,26.10
2019-03-08T23:07:08.199Z,25.95
2019-03-08T23:10:04.459Z,25.97
2019-03-08T23:12:59.628Z,25.90
2019-03-08T23:15:54.320Z,25.88
2019-03-08T23:18:49.444Z,25.85
2019-03-08T23:21:44.416Z,25.25
2019-03-08T23:24:39.404Z,26.12
2019-03-08T23:27:42.248Z,26.77
2019-03-08T23:30:37.256Z,34.20
2019-03-08T23:33:32.610Z,36.58
2019-03-08T23:36:27.542Z,65.78
2019-03-08T23:39:22.348Z,76.05
2019-03-08T23:42:17.561Z,79.65
2019-03-08T23:45:13.824Z,90.42
2019-03-08T23:48:08.980Z,97.08
2019-03-08T23:51:04.145Z,98.33
2019-03-08T23:53:59.563Z,93.90
2019-03-08T23:56:54.470Z,93.70
2019-03-08T23:59:49.394Z,94.13
